sensor_id;sensor_type;location;lat;lon;timestamp;pressure;altitude;pressure_sealevel;temperature;humidity
66484;BME280;53299;52.160;7.556;2022-11-20T00:00:44;100894.78;;;16.61;38.04
66484;BME280;53299;52.160;7.556;2022-11-20T00:03:09;100892.16;;;16.61;38.07
66484;BME280;53299;52.160;7.556;2022-11-20T00:05:34;100885.16;;;16.60;37.92
66484;BME280;53299;52.160;7.556;2022-11-20T00:07:59;100878.88;;;16.61;37.59
66484;BME280;53299;52.160;7.556;2022-11-20T00:10:25;100883.38;;;16.61;37.76
66484;BME280;53299;52.160;7.556;2022-11-20T00:12:50;100880.53;;;16.62;37.79
66484;BME280;53299;52.160;7.556;2022-11-20T00:15:15;100879.88;;;16.60;37.74
66484;BME280;53299;52.160;7.556;2022-11-20T00:17:40;100881.53;;;16.61;37.84
66484;BME280;53299;52.160;7.556;2022-11-20T00:20:06;100874.56;;;16.60;37.59
66484;BME280;53299;52.160;7.556;2022-11-20T00:22:31;100878.06;;;16.61;37.79
66484;BME280;53299;52.160;7.556;2022-11-20T00:24:56;100885.16;;;16.60;37.79
66484;BME280;53299;52.160;7.556;2022-11-20T00:27:22;100874.56;;;16.60;37.61
66484;BME280;53299;52.160;7.556;2022-11-20T00:29:47;100874.56;;;16.60;37.48
66484;BME280;53299;52.160;7.556;2022-11-20T00:32:12;100866.59;;;16.60;37.33
66484;BME280;53299;52.160;7.556;2022-11-20T00:34:37;100869.25;;;16.60;37.52
66484;BME280;53299;52.160;7.556;2022-11-20T00:37:03;100878.06;;;16.61;37.65
66484;BME280;53299;52.160;7.556;2022-11-20T00:39:28;100869.25;;;16.60;37.38
66484;BME280;53299;52.160;7.556;2022-11-20T00:41:53;100874.56;;;16.60;37.51
66484;BME280;53299;52.160;7.556;2022-11-20T00:44:18;100881.69;;;16.60;37.36
66484;BME280;53299;52.160;7.556;2022-11-20T00:46:44;100885.16;;;16.60;37.32
66484;BME280;53299;52.160;7.556;2022-11-20T00:49:09;100883.50;;;16.59;37.48
66484;BME280;53299;52.160;7.556;2022-11-20T00:51:34;100883.38;;;16.61;37.54
66484;BME280;53299;52.160;7.556;2022-11-20T00:53:59;100879.03;;;16.60;37.39
66484;BME280;53299;52.160;7.556;2022-11-20T00:56:25;100874.56;;;16.60;37.38
66484;BME280;53299;52.160;7.556;2022-11-20T00:58:50;100879.88;;;16.60;37.48
66484;BME280;53299;52.160;7.556;2022-11-20T01:01:18;100880.03;;;16.59;37.19
66484;BME280;53299;52.160;7.556;2022-11-20T01:03:46;100878.22;;;16.59;37.07
66484;BME280;53299;52.160;7.556;2022-11-20T01:08:40;100863.97;;;16.60;37.22
66484;BME280;53299;52.160;7.556;2022-11-20T01:11:26;100868.44;;;16.60;37.20
66484;BME280;53299;52.160;7.556;2022-11-20T01:13:53;100879.03;;;16.60;37.14
66484;BME280;53299;52.160;7.556;2022-11-20T01:16:20;100870.25;;;16.59;36.96
66484;BME280;53299;52.160;7.556;2022-11-20T01:18:48;100872.09;;;16.59;36.93
66484;BME280;53299;52.160;7.556;2022-11-20T01:21:29;100871.25;;;16.58;37.04
66484;BME280;53299;52.160;7.556;2022-11-20T01:23:55;100870.25;;;16.59;37.17
66484;BME280;53299;52.160;7.556;2022-11-20T01:26:22;100867.63;;;16.59;37.07
66484;BME280;53299;52.160;7.556;2022-11-20T01:28:48;100869.44;;;16.59;37.10
66484;BME280;53299;52.160;7.556;2022-11-20T01:31:23;100856.19;;;16.59;36.97
66484;BME280;53299;52.160;7.556;2022-11-20T01:33:51;100857.00;;;16.59;36.85
66484;BME280;53299;52.160;7.556;2022-11-20T01:36:18;100855.38;;;16.58;36.88
66484;BME280;53299;52.160;7.556;2022-11-20T01:38:43;100853.53;;;16.59;36.95
66484;BME280;53299;52.160;7.556;2022-11-20T01:41:10;100843.75;;;16.59;36.93
66484;BME280;53299;52.160;7.556;2022-11-20T01:43:36;100837.63;;;16.59;36.98
66484;BME280;53299;52.160;7.556;2022-11-20T01:46:15;100839.47;;;16.58;36.91
66484;BME280;53299;52.160;7.556;2022-11-20T01:51:33;100834.16;;;16.58;37.05
66484;BME280;53299;52.160;7.556;2022-11-20T01:54:02;100826.22;;;16.58;37.05
66484;BME280;53299;52.160;7.556;2022-11-20T01:56:31;100819.09;;;16.59;36.76
66484;BME280;53299;52.160;7.556;2022-11-20T01:59:01;100818.25;;;16.58;36.95
66484;BME280;53299;52.160;7.556;2022-11-20T02:01:28;100815.63;;;16.58;37.01
66484;BME280;53299;52.160;7.556;2022-11-20T02:03:54;100815.63;;;16.58;36.70
66484;BME280;53299;52.160;7.556;2022-11-20T02:06:24;100807.66;;;16.58;37.12
66484;BME280;53299;52.160;7.556;2022-11-20T02:08:51;100800.53;;;16.59;36.80
66484;BME280;53299;52.160;7.556;2022-11-20T02:11:16;100810.31;;;16.58;36.67
66484;BME280;53299;52.160;7.556;2022-11-20T02:13:42;100804.16;;;16.58;36.71
66484;BME280;53299;52.160;7.556;2022-11-20T02:16:21;100799.88;;;16.57;36.82
66484;BME280;53299;52.160;7.556;2022-11-20T02:18:48;100800.69;;;16.57;36.78
66484;BME280;53299;52.160;7.556;2022-11-20T02:21:34;100799.72;;;16.58;36.64
66484;BME280;53299;52.160;7.556;2022-11-20T02:26:40;100803.34;;;16.57;36.64
66484;BME280;53299;52.160;7.556;2022-11-20T02:29:06;100807.66;;;16.58;36.66
66484;BME280;53299;52.160;7.556;2022-11-20T02:31:40;100810.47;;;16.57;36.66
66484;BME280;53299;52.160;7.556;2022-11-20T02:34:06;100810.31;;;16.58;36.52
66484;BME280;53299;52.160;7.556;2022-11-20T02:36:32;100800.69;;;16.57;36.75
66484;BME280;53299;52.160;7.556;2022-11-20T02:38:58;100803.34;;;16.57;36.40
66484;BME280;53299;52.160;7.556;2022-11-20T02:41:34;100800.69;;;16.57;36.52
66484;BME280;53299;52.160;7.556;2022-11-20T02:44:00;100800.69;;;16.57;36.63
66484;BME280;53299;52.160;7.556;2022-11-20T02:46:25;100800.69;;;16.57;36.52
66484;BME280;53299;52.160;7.556;2022-11-20T02:48:51;100803.34;;;16.57;36.48
66484;BME280;53299;52.160;7.556;2022-11-20T02:51:16;100803.34;;;16.57;36.51
66484;BME280;53299;52.160;7.556;2022-11-20T02:53:41;100806.00;;;16.57;36.45
66484;BME280;53299;52.160;7.556;2022-11-20T02:56:07;100809.47;;;16.58;36.38
66484;BME280;53299;52.160;7.556;2022-11-20T02:58:32;100803.34;;;16.57;36.52
66484;BME280;53299;52.160;7.556;2022-11-20T03:00:57;100805.16;;;16.57;36.11
66484;BME280;53299;52.160;7.556;2022-11-20T03:03:23;100807.00;;;16.56;36.21
66484;BME280;53299;52.160;7.556;2022-11-20T03:05:48;100803.34;;;16.57;36.25
66484;BME280;53299;52.160;7.556;2022-11-20T03:08:13;100794.56;;;16.57;36.22
66484;BME280;53299;52.160;7.556;2022-11-20T03:10:38;100792.06;;;16.55;36.25
66484;BME280;53299;52.160;7.556;2022-11-20T03:13:04;100797.22;;;16.57;36.09
66484;BME280;53299;52.160;7.556;2022-11-20T03:15:29;100791.09;;;16.56;36.41
66484;BME280;53299;52.160;7.556;2022-11-20T03:17:54;100800.69;;;16.57;36.24
66484;BME280;53299;52.160;7.556;2022-11-20T03:20:20;100795.38;;;16.57;36.33
66484;BME280;53299;52.160;7.556;2022-11-20T03:22:45;100794.56;;;16.57;36.22
66484;BME280;53299;52.160;7.556;2022-11-20T03:25:10;100791.09;;;16.56;35.96
66484;BME280;53299;52.160;7.556;2022-11-20T03:27:36;100790.09;;;16.57;36.18
66484;BME280;53299;52.160;7.556;2022-11-20T03:30:01;100798.22;;;16.56;36.05
66484;BME280;53299;52.160;7.556;2022-11-20T03:32:26;100783.97;;;16.57;35.85
66484;BME280;53299;52.160;7.556;2022-11-20T03:34:51;100783.13;;;16.56;35.88
66484;BME280;53299;52.160;7.556;2022-11-20T03:37:17;100771.72;;;16.56;35.81
66484;BME280;53299;52.160;7.556;2022-11-20T03:39:42;100771.72;;;16.56;35.97
66484;BME280;53299;52.160;7.556;2022-11-20T03:42:08;100769.91;;;16.56;35.96
66484;BME280;53299;52.160;7.556;2022-11-20T03:44:34;100767.25;;;16.56;35.87
66484;BME280;53299;52.160;7.556;2022-11-20T03:46:59;100760.25;;;16.55;35.86
66484;BME280;53299;52.160;7.556;2022-11-20T03:49:24;100762.91;;;16.55;35.90
66484;BME280;53299;52.160;7.556;2022-11-20T03:51:49;100759.28;;;16.56;35.87
66484;BME280;53299;52.160;7.556;2022-11-20T03:54:14;100760.25;;;16.55;36.00
66484;BME280;53299;52.160;7.556;2022-11-20T03:56:40;100765.56;;;16.55;35.88
66484;BME280;53299;52.160;7.556;2022-11-20T03:59:06;100765.56;;;16.55;35.64
66484;BME280;53299;52.160;7.556;2022-11-20T04:01:34;100758.63;;;16.54;35.64
66484;BME280;53299;52.160;7.556;2022-11-20T04:04:00;100765.56;;;16.55;35.74
66484;BME280;53299;52.160;7.556;2022-11-20T04:06:28;100760.25;;;16.55;35.87
66484;BME280;53299;52.160;7.556;2022-11-20T04:08:54;100760.25;;;16.55;35.90
66484;BME280;53299;52.160;7.556;2022-11-20T04:11:22;100753.31;;;16.54;35.87
66484;BME280;53299;52.160;7.556;2022-11-20T04:13:52;100754.97;;;16.55;35.85
66484;BME280;53299;52.160;7.556;2022-11-20T04:16:18;100754.97;;;16.55;36.13
66484;BME280;53299;52.160;7.556;2022-11-20T04:18:44;100761.94;;;16.56;36.04
66484;BME280;53299;52.160;7.556;2022-11-20T04:21:10;100766.41;;;16.56;35.83
66484;BME280;53299;52.160;7.556;2022-11-20T04:23:36;100762.91;;;16.55;35.85
66484;BME280;53299;52.160;7.556;2022-11-20T04:26:06;100761.13;;;16.56;35.70
66484;BME280;53299;52.160;7.556;2022-11-20T04:28:32;100759.28;;;16.56;36.18
66484;BME280;53299;52.160;7.556;2022-11-20T04:31:15;100760.25;;;16.55;35.98
66484;BME280;53299;52.160;7.556;2022-11-20T04:33:41;100762.91;;;16.55;36.08
66484;BME280;53299;52.160;7.556;2022-11-20T04:36:10;100762.75;;;16.57;36.15
66484;BME280;53299;52.160;7.556;2022-11-20T04:38:36;100760.25;;;16.55;35.72
66484;BME280;53299;52.160;7.556;2022-11-20T04:41:03;100767.25;;;16.56;35.90
66484;BME280;53299;52.160;7.556;2022-11-20T04:43:29;100754.97;;;16.55;35.77
66484;BME280;53299;52.160;7.556;2022-11-20T04:45:55;100760.25;;;16.55;35.65
66484;BME280;53299;52.160;7.556;2022-11-20T04:48:21;100761.13;;;16.56;35.58
66484;BME280;53299;52.160;7.556;2022-11-20T04:50:47;100762.75;;;16.57;35.84
66484;BME280;53299;52.160;7.556;2022-11-20T04:53:12;100753.16;;;16.56;35.89
66484;BME280;53299;52.160;7.556;2022-11-20T04:55:37;100753.16;;;16.56;35.66
66484;BME280;53299;52.160;7.556;2022-11-20T04:58:03;100750.53;;;16.56;35.72
66484;BME280;53299;52.160;7.556;2022-11-20T05:00:28;100747.00;;;16.55;35.58
66484;BME280;53299;52.160;7.556;2022-11-20T05:02:54;100751.34;;;16.56;35.48
66484;BME280;53299;52.160;7.556;2022-11-20T05:05:19;100750.53;;;16.56;35.50
66484;BME280;53299;52.160;7.556;2022-11-20T05:07:44;100749.66;;;16.55;35.80
66484;BME280;53299;52.160;7.556;2022-11-20T05:10:09;100749.66;;;16.55;35.46
66484;BME280;53299;52.160;7.556;2022-11-20T05:12:35;100754.97;;;16.55;35.49
66484;BME280;53299;52.160;7.556;2022-11-20T05:15:00;100757.63;;;16.55;35.57
66484;BME280;53299;52.160;7.556;2022-11-20T05:17:25;100750.53;;;16.56;35.45
66484;BME280;53299;52.160;7.556;2022-11-20T05:19:50;100749.66;;;16.55;35.56
66484;BME280;53299;52.160;7.556;2022-11-20T05:22:16;100744.38;;;16.55;35.88
66484;BME280;53299;52.160;7.556;2022-11-20T05:24:41;100746.19;;;16.55;35.50
66484;BME280;53299;52.160;7.556;2022-11-20T05:27:06;100743.53;;;16.55;35.57
66484;BME280;53299;52.160;7.556;2022-11-20T05:29:31;100736.59;;;16.54;35.34
66484;BME280;53299;52.160;7.556;2022-11-20T05:31:57;100737.41;;;16.54;35.39
66484;BME280;53299;52.160;7.556;2022-11-20T05:34:22;100737.41;;;16.54;35.39
66484;BME280;53299;52.160;7.556;2022-11-20T05:36:47;100742.72;;;16.54;35.23
66484;BME280;53299;52.160;7.556;2022-11-20T05:39:12;100737.41;;;16.54;35.28
66484;BME280;53299;52.160;7.556;2022-11-20T05:41:38;100737.41;;;16.54;35.52
66484;BME280;53299;52.160;7.556;2022-11-20T05:44:03;100737.41;;;16.54;35.39
66484;BME280;53299;52.160;7.556;2022-11-20T05:46:28;100736.59;;;16.54;35.26
66484;BME280;53299;52.160;7.556;2022-11-20T05:48:54;100735.75;;;16.53;35.10
66484;BME280;53299;52.160;7.556;2022-11-20T05:51:19;100724.31;;;16.53;35.12
66484;BME280;53299;52.160;7.556;2022-11-20T05:53:45;100735.75;;;16.53;35.07
66484;BME280;53299;52.160;7.556;2022-11-20T05:56:13;100736.75;;;16.52;35.08
66484;BME280;53299;52.160;7.556;2022-11-20T05:58:39;100736.75;;;16.52;35.07
66484;BME280;53299;52.160;7.556;2022-11-20T06:01:21;100734.09;;;16.52;35.22
66484;BME280;53299;52.160;7.556;2022-11-20T06:03:47;100728.81;;;16.52;35.12
66484;BME280;53299;52.160;7.556;2022-11-20T06:06:16;100730.63;;;16.52;35.12
66484;BME280;53299;52.160;7.556;2022-11-20T06:08:43;100730.63;;;16.52;35.07
66484;BME280;53299;52.160;7.556;2022-11-20T06:11:09;100734.25;;;16.51;35.21
66484;BME280;53299;52.160;7.556;2022-11-20T06:13:35;100732.44;;;16.51;34.87
66484;BME280;53299;52.160;7.556;2022-11-20T06:16:01;100728.94;;;16.51;34.88
66484;BME280;53299;52.160;7.556;2022-11-20T06:18:28;100727.16;;;16.51;34.90
66484;BME280;53299;52.160;7.556;2022-11-20T06:21:02;100729.81;;;16.51;35.02
66484;BME280;53299;52.160;7.556;2022-11-20T06:23:29;100737.91;;;16.50;34.94
66484;BME280;53299;52.160;7.556;2022-11-20T06:25:54;100736.91;;;16.51;34.80
66484;BME280;53299;52.160;7.556;2022-11-20T06:28:20;100740.56;;;16.50;35.06
66484;BME280;53299;52.160;7.556;2022-11-20T06:30:45;100736.06;;;16.50;35.14
66484;BME280;53299;52.160;7.556;2022-11-20T06:33:10;100739.72;;;16.49;35.06
66484;BME280;53299;52.160;7.556;2022-11-20T06:35:35;100745.84;;;16.50;35.01
66484;BME280;53299;52.160;7.556;2022-11-20T06:38:01;100751.16;;;16.50;34.94
66484;BME280;53299;52.160;7.556;2022-11-20T06:40:26;100750.31;;;16.49;34.89
66484;BME280;53299;52.160;7.556;2022-11-20T06:42:53;100749.31;;;16.50;34.87
66484;BME280;53299;52.160;7.556;2022-11-20T06:45:18;100750.31;;;16.49;34.81
66484;BME280;53299;52.160;7.556;2022-11-20T06:47:44;100750.31;;;16.49;34.82
66484;BME280;53299;52.160;7.556;2022-11-20T06:50:09;100754.81;;;16.48;34.80
66484;BME280;53299;52.160;7.556;2022-11-20T06:52:34;100751.31;;;16.48;34.75
66484;BME280;53299;52.160;7.556;2022-11-20T06:54:59;100753.13;;;16.47;35.04
66484;BME280;53299;52.160;7.556;2022-11-20T06:57:25;100759.25;;;16.48;34.89
66484;BME280;53299;52.160;7.556;2022-11-20T06:59:50;100756.59;;;16.48;34.82
66484;BME280;53299;52.160;7.556;2022-11-20T07:02:15;100753.94;;;16.48;34.85
66484;BME280;53299;52.160;7.556;2022-11-20T07:04:40;100752.31;;;16.47;35.03
66484;BME280;53299;52.160;7.556;2022-11-20T07:07:05;100753.94;;;16.48;34.81
66484;BME280;53299;52.160;7.556;2022-11-20T07:09:31;100747.00;;;16.47;34.85
66484;BME280;53299;52.160;7.556;2022-11-20T07:11:56;100739.06;;;16.47;34.70
66484;BME280;53299;52.160;7.556;2022-11-20T07:14:22;100746.19;;;16.46;34.89
66484;BME280;53299;52.160;7.556;2022-11-20T07:16:47;100752.31;;;16.47;34.86
66484;BME280;53299;52.160;7.556;2022-11-20T07:19:12;100742.72;;;16.46;34.68
66484;BME280;53299;52.160;7.556;2022-11-20T07:21:37;100755.09;;;16.45;34.76
66484;BME280;53299;52.160;7.556;2022-11-20T07:24:03;100755.97;;;16.46;34.80
66484;BME280;53299;52.160;7.556;2022-11-20T07:26:28;100754.13;;;16.46;34.78
66484;BME280;53299;52.160;7.556;2022-11-20T07:28:53;100756.94;;;16.45;34.54
66484;BME280;53299;52.160;7.556;2022-11-20T07:31:19;100760.41;;;16.45;34.74
66484;BME280;53299;52.160;7.556;2022-11-20T07:33:44;100760.41;;;16.45;34.71
66484;BME280;53299;52.160;7.556;2022-11-20T07:36:09;100756.09;;;16.44;34.54
66484;BME280;53299;52.160;7.556;2022-11-20T07:38:34;100756.09;;;16.44;34.53
66484;BME280;53299;52.160;7.556;2022-11-20T07:40:59;100748.16;;;16.44;34.54
66484;BME280;53299;52.160;7.556;2022-11-20T07:43:25;100750.81;;;16.44;34.60
66484;BME280;53299;52.160;7.556;2022-11-20T07:45:50;100757.94;;;16.44;34.76
66484;BME280;53299;52.160;7.556;2022-11-20T07:48:16;100746.47;;;16.43;34.83
66484;BME280;53299;52.160;7.556;2022-11-20T07:50:41;100742.03;;;16.44;34.75
66484;BME280;53299;52.160;7.556;2022-11-20T07:53:06;100741.19;;;16.43;34.66
66484;BME280;53299;52.160;7.556;2022-11-20T07:55:32;100736.75;;;16.44;34.68
66484;BME280;53299;52.160;7.556;2022-11-20T07:57:57;100730.59;;;16.43;34.75
66484;BME280;53299;52.160;7.556;2022-11-20T08:00:23;100735.88;;;16.43;34.66
66484;BME280;53299;52.160;7.556;2022-11-20T08:02:48;100729.75;;;16.43;34.62
66484;BME280;53299;52.160;7.556;2022-11-20T08:05:14;100735.06;;;16.43;34.29
66484;BME280;53299;52.160;7.556;2022-11-20T08:07:41;100735.06;;;16.43;34.82
66484;BME280;53299;52.160;7.556;2022-11-20T08:10:09;100728.94;;;16.42;34.51
66484;BME280;53299;52.160;7.556;2022-11-20T08:12:35;100725.47;;;16.42;34.60
66484;BME280;53299;52.160;7.556;2022-11-20T08:15:00;100732.41;;;16.43;34.65
66484;BME280;53299;52.160;7.556;2022-11-20T08:17:25;100722.81;;;16.42;34.56
66484;BME280;53299;52.160;7.556;2022-11-20T08:19:51;100725.47;;;16.42;34.46
66484;BME280;53299;52.160;7.556;2022-11-20T08:22:16;100723.66;;;16.42;34.60
66484;BME280;53299;52.160;7.556;2022-11-20T08:24:41;100720.19;;;16.42;34.52
66484;BME280;53299;52.160;7.556;2022-11-20T08:27:06;100722.00;;;16.41;34.58
66484;BME280;53299;52.160;7.556;2022-11-20T08:29:32;100705.25;;;16.41;34.66
66484;BME280;53299;52.160;7.556;2022-11-20T08:31:57;100713.19;;;16.41;34.75
66484;BME280;53299;52.160;7.556;2022-11-20T08:34:22;100724.66;;;16.41;34.65
66484;BME280;53299;52.160;7.556;2022-11-20T08:36:47;100729.94;;;16.41;34.59
66484;BME280;53299;52.160;7.556;2022-11-20T08:39:13;100734.38;;;16.41;34.66
66484;BME280;53299;52.160;7.556;2022-11-20T08:41:38;100731.75;;;16.41;34.82
66484;BME280;53299;52.160;7.556;2022-11-20T08:44:07;100736.22;;;16.40;34.96
66484;BME280;53299;52.160;7.556;2022-11-20T08:46:34;100742.34;;;16.41;34.78
66484;BME280;53299;52.160;7.556;2022-11-20T08:49:00;100739.69;;;16.41;34.91
66484;BME280;53299;52.160;7.556;2022-11-20T08:51:25;100742.34;;;16.41;34.91
66484;BME280;53299;52.160;7.556;2022-11-20T08:53:51;100743.19;;;16.41;34.88
66484;BME280;53299;52.160;7.556;2022-11-20T08:56:16;100738.72;;;16.42;34.99
66484;BME280;53299;52.160;7.556;2022-11-20T08:58:42;100735.25;;;16.41;35.01
66484;BME280;53299;52.160;7.556;2022-11-20T09:01:07;100733.41;;;16.42;34.93
66484;BME280;53299;52.160;7.556;2022-11-20T09:03:33;100729.94;;;16.41;34.84
66484;BME280;53299;52.160;7.556;2022-11-20T09:05:59;100733.41;;;16.42;34.84
66484;BME280;53299;52.160;7.556;2022-11-20T09:08:25;100730.78;;;16.42;35.06
66484;BME280;53299;52.160;7.556;2022-11-20T09:10:52;100723.66;;;16.42;35.14
66484;BME280;53299;52.160;7.556;2022-11-20T09:13:17;100734.25;;;16.42;35.22
66484;BME280;53299;52.160;7.556;2022-11-20T09:15:42;100719.16;;;16.43;35.33
66484;BME280;53299;52.160;7.556;2022-11-20T09:18:07;100719.16;;;16.43;35.24
66484;BME280;53299;52.160;7.556;2022-11-20T09:20:33;100708.56;;;16.43;35.34
66484;BME280;53299;52.160;7.556;2022-11-20T09:22:58;100718.34;;;16.42;35.44
66484;BME280;53299;52.160;7.556;2022-11-20T09:25:23;100719.16;;;16.43;35.36
66484;BME280;53299;52.160;7.556;2022-11-20T09:27:57;100703.28;;;16.43;35.37
66484;BME280;53299;52.160;7.556;2022-11-20T09:30:23;100703.28;;;16.43;35.56
66484;BME280;53299;52.160;7.556;2022-11-20T09:32:49;100704.09;;;16.43;35.57
66484;BME280;53299;52.160;7.556;2022-11-20T09:35:14;100700.63;;;16.43;35.60
66484;BME280;53299;52.160;7.556;2022-11-20T09:37:39;100708.56;;;16.43;35.65
66484;BME280;53299;52.160;7.556;2022-11-20T09:40:06;100706.75;;;16.43;35.66
66484;BME280;53299;52.160;7.556;2022-11-20T09:55:41;100684.72;;;16.43;36.10
66484;BME280;53299;52.160;7.556;2022-11-20T09:58:16;100682.06;;;16.43;36.33
66484;BME280;53299;52.160;7.556;2022-11-20T10:00:47;100677.59;;;16.43;36.13
66484;BME280;53299;52.160;7.556;2022-11-20T10:03:17;100684.72;;;16.43;36.24
66484;BME280;53299;52.160;7.556;2022-11-20T10:05:48;100674.13;;;16.43;36.25
66484;BME280;53299;52.160;7.556;2022-11-20T10:08:21;100668.84;;;16.43;36.31
66484;BME280;53299;52.160;7.556;2022-11-20T10:27:08;100668.84;;;16.43;36.63
66484;BME280;53299;52.160;7.556;2022-11-20T10:29:44;100667.00;;;16.43;36.53
66484;BME280;53299;52.160;7.556;2022-11-20T10:32:14;100660.88;;;16.43;36.68
66484;BME280;53299;52.160;7.556;2022-11-20T10:37:17;100653.94;;;16.42;36.57
66484;BME280;53299;52.160;7.556;2022-11-20T10:42:40;100659.06;;;16.43;36.63
66484;BME280;53299;52.160;7.556;2022-11-20T10:45:22;100660.88;;;16.43;36.74
66484;BME280;53299;52.160;7.556;2022-11-20T10:48:15;100656.41;;;16.43;36.82
66484;BME280;53299;52.160;7.556;2022-11-20T10:54:18;100650.28;;;16.43;36.72
66484;BME280;53299;52.160;7.556;2022-11-20T10:56:50;100658.22;;;16.43;36.77
66484;BME280;53299;52.160;7.556;2022-11-20T11:02:20;100644.16;;;16.42;36.89
66484;BME280;53299;52.160;7.556;2022-11-20T11:04:48;100639.69;;;16.43;36.86
66484;BME280;53299;52.160;7.556;2022-11-20T11:07:22;100628.28;;;16.42;37.02
66484;BME280;53299;52.160;7.556;2022-11-20T11:09:52;100629.09;;;16.43;36.83
66484;BME280;53299;52.160;7.556;2022-11-20T11:12:19;100631.75;;;16.43;36.74
66484;BME280;53299;52.160;7.556;2022-11-20T11:14:50;100627.25;;;16.43;36.86
66484;BME280;53299;52.160;7.556;2022-11-20T11:17:33;100620.16;;;16.44;36.76
66484;BME280;53299;52.160;7.556;2022-11-20T11:22:24;100617.53;;;16.44;37.12
66484;BME280;53299;52.160;7.556;2022-11-20T11:24:52;100616.50;;;16.45;36.77
66484;BME280;53299;52.160;7.556;2022-11-20T11:27:18;100607.59;;;16.46;36.81
66484;BME280;53299;52.160;7.556;2022-11-20T11:29:44;100605.91;;;16.45;36.91
66484;BME280;53299;52.160;7.556;2022-11-20T11:32:17;100605.91;;;16.45;36.89
66484;BME280;53299;52.160;7.556;2022-11-20T11:34:43;100604.09;;;16.45;36.93
66484;BME280;53299;52.160;7.556;2022-11-20T11:37:19;100603.13;;;16.46;37.05
66484;BME280;53299;52.160;7.556;2022-11-20T11:39:46;100603.13;;;16.46;37.06
66484;BME280;53299;52.160;7.556;2022-11-20T11:42:16;100594.34;;;16.46;36.92
66484;BME280;53299;52.160;7.556;2022-11-20T11:44:47;100591.69;;;16.46;36.84
66484;BME280;53299;52.160;7.556;2022-11-20T11:47:22;100588.03;;;16.47;37.05
66484;BME280;53299;52.160;7.556;2022-11-20T11:49:48;100591.69;;;16.46;36.98
66484;BME280;53299;52.160;7.556;2022-11-20T11:52:18;100589.03;;;16.46;37.23
66484;BME280;53299;52.160;7.556;2022-11-20T12:00:09;100584.56;;;16.46;37.06
66484;BME280;53299;52.160;7.556;2022-11-20T12:05:43;100586.22;;;16.47;37.44
66484;BME280;53299;52.160;7.556;2022-11-20T12:13:50;100564.19;;;16.47;37.42
66484;BME280;53299;52.160;7.556;2022-11-20T12:16:19;100560.72;;;16.46;37.37
66484;BME280;53299;52.160;7.556;2022-11-20T12:18:49;100552.78;;;16.46;37.49
66484;BME280;53299;52.160;7.556;2022-11-20T12:27:08;100534.22;;;16.46;37.57
66484;BME280;53299;52.160;7.556;2022-11-20T12:32:04;100528.13;;;16.46;37.67
66484;BME280;53299;52.160;7.556;2022-11-20T12:39:49;100525.47;;;16.46;37.93
66484;BME280;53299;52.160;7.556;2022-11-20T12:42:39;100520.97;;;16.46;37.79
66484;BME280;53299;52.160;7.556;2022-11-20T12:48:08;100523.63;;;16.46;37.95
66484;BME280;53299;52.160;7.556;2022-11-20T12:50:48;100523.63;;;16.46;37.99
66484;BME280;53299;52.160;7.556;2022-11-20T12:53:49;100517.50;;;16.46;38.05
66484;BME280;53299;52.160;7.556;2022-11-20T13:05:03;100518.50;;;16.45;38.39
66484;BME280;53299;52.160;7.556;2022-11-20T13:07:31;100510.53;;;16.45;38.24
66484;BME280;53299;52.160;7.556;2022-11-20T13:09:59;100515.84;;;16.45;38.17
66484;BME280;53299;52.160;7.556;2022-11-20T13:12:35;100509.72;;;16.44;38.09
66484;BME280;53299;52.160;7.556;2022-11-20T13:15:15;100493.81;;;16.44;38.25
66484;BME280;53299;52.160;7.556;2022-11-20T13:17:54;100485.88;;;16.44;38.09
66484;BME280;53299;52.160;7.556;2022-11-20T13:20:21;100478.75;;;16.45;38.21
66484;BME280;53299;52.160;7.556;2022-11-20T13:22:47;100470.81;;;16.45;38.17
66484;BME280;53299;52.160;7.556;2022-11-20T13:25:32;100466.50;;;16.44;38.19
66484;BME280;53299;52.160;7.556;2022-11-20T13:28:00;100468.16;;;16.45;38.32
66484;BME280;53299;52.160;7.556;2022-11-20T13:30:27;100461.22;;;16.44;38.34
66484;BME280;53299;52.160;7.556;2022-11-20T13:40:26;100441.81;;;16.43;38.14
66484;BME280;53299;52.160;7.556;2022-11-20T13:45:33;100429.44;;;16.44;38.34
66484;BME280;53299;52.160;7.556;2022-11-20T13:48:02;100426.78;;;16.44;38.32
66484;BME280;53299;52.160;7.556;2022-11-20T13:50:40;100417.16;;;16.43;38.49
66484;BME280;53299;52.160;7.556;2022-11-20T14:01:53;100402.28;;;16.42;38.19
66484;BME280;53299;52.160;7.556;2022-11-20T14:04:26;100399.63;;;16.42;38.29
66484;BME280;53299;52.160;7.556;2022-11-20T14:06:52;100394.31;;;16.42;38.35
66484;BME280;53299;52.160;7.556;2022-11-20T14:09:31;100397.94;;;16.41;38.50
66484;BME280;53299;52.160;7.556;2022-11-20T14:11:57;100400.59;;;16.41;38.26
66484;BME280;53299;52.160;7.556;2022-11-20T14:14:27;100395.31;;;16.41;38.38
66484;BME280;53299;52.160;7.556;2022-11-20T14:17:05;100387.34;;;16.41;38.40
66484;BME280;53299;52.160;7.556;2022-11-20T14:19:31;100380.41;;;16.40;38.26
66484;BME280;53299;52.160;7.556;2022-11-20T14:24:47;100375.94;;;16.40;38.43
66484;BME280;53299;52.160;7.556;2022-11-20T14:27:18;100372.47;;;16.40;38.53
66484;BME280;53299;52.160;7.556;2022-11-20T14:29:46;100357.59;;;16.39;38.43
66484;BME280;53299;52.160;7.556;2022-11-20T14:32:16;100362.69;;;16.40;38.41
66484;BME280;53299;52.160;7.556;2022-11-20T14:34:44;100353.94;;;16.40;38.49
66484;BME280;53299;52.160;7.556;2022-11-20T14:37:12;100360.88;;;16.41;38.41
66484;BME280;53299;52.160;7.556;2022-11-20T14:39:48;100362.88;;;16.39;38.33
66484;BME280;53299;52.160;7.556;2022-11-20T14:42:19;100368.19;;;16.39;38.28
66484;BME280;53299;52.160;7.556;2022-11-20T14:44:45;100362.88;;;16.39;38.29